sensor_id;sensor_type;location;lat;lon;timestamp;P1;durP1;ratioP1;P2;durP2;ratioP2
7605;SDS011;3844;53.360;9.738;2022-11-27T00:01:52;27.52;;;9.90;;
7605;SDS011;3844;53.360;9.738;2022-11-27T00:03:53;33.80;;;10.93;;
7605;SDS011;3844;53.360;9.738;2022-11-27T00:05:55;30.05;;;10.55;;
7605;SDS011;3844;53.360;9.738;2022-11-27T00:07:57;27.75;;;9.75;;
7605;SDS011;3844;53.360;9.738;2022-11-27T00:09:58;28.02;;;9.82;;
7605;SDS011;3844;53.360;9.738;2022-11-27T00:11:58;23.50;;;9.10;;
7605;SDS011;3844;53.360;9.738;2022-11-27T00:14:00;25.48;;;9.95;;
7605;SDS011;3844;53.360;9.738;2022-11-27T00:16:00;23.77;;;9.30;;
7605;SDS011;3844;53.360;9.738;2022-11-27T00:18:02;22.67;;;9.57;;
7605;SDS011;3844;53.360;9.738;2022-11-27T00:20:03;24.15;;;8.43;;
7605;SDS011;3844;53.360;9.738;2022-11-27T00:22:04;25.38;;;9.50;;
7605;SDS011;3844;53.360;9.738;2022-11-27T00:24:05;23.10;;;9.13;;
7605;SDS011;3844;53.360;9.738;2022-11-27T00:26:08;18.40;;;6.67;;
7605;SDS011;3844;53.360;9.738;2022-11-27T00:28:09;22.88;;;8.40;;
7605;SDS011;3844;53.360;9.738;2022-11-27T00:30:11;23.77;;;9.38;;
7605;SDS011;3844;53.360;9.738;2022-11-27T00:32:12;25.77;;;8.85;;
7605;SDS011;3844;53.360;9.738;2022-11-27T00:34:13;24.23;;;9.27;;
7605;SDS011;3844;53.360;9.738;2022-11-27T00:36:14;27.98;;;9.60;;
7605;SDS011;3844;53.360;9.738;2022-11-27T00:38:15;30.52;;;10.05;;
7605;SDS011;3844;53.360;9.738;2022-11-27T00:40:16;23.63;;;9.10;;
7605;SDS011;3844;53.360;9.738;2022-11-27T00:42:17;25.13;;;8.90;;
7605;SDS011;3844;53.360;9.738;2022-11-27T00:44:18;25.92;;;9.55;;
7605;SDS011;3844;53.360;9.738;2022-11-27T00:46:20;25.88;;;8.98;;
7605;SDS011;3844;53.360;9.738;2022-11-27T00:48:22;28.15;;;9.50;;
7605;SDS011;3844;53.360;9.738;2022-11-27T00:50:23;29.20;;;9.73;;
7605;SDS011;3844;53.360;9.738;2022-11-27T00:52:24;23.33;;;9.20;;
7605;SDS011;3844;53.360;9.738;2022-11-27T00:54:25;28.27;;;9.30;;
7605;SDS011;3844;53.360;9.738;2022-11-27T00:56:26;26.88;;;8.90;;
7605;SDS011;3844;53.360;9.738;2022-11-27T01:00:29;25.17;;;9.10;;
7605;SDS011;3844;53.360;9.738;2022-11-27T01:02:31;25.75;;;8.75;;
7605;SDS011;3844;53.360;9.738;2022-11-27T01:04:31;23.85;;;8.82;;
7605;SDS011;3844;53.360;9.738;2022-11-27T01:06:33;26.60;;;8.80;;
7605;SDS011;3844;53.360;9.738;2022-11-27T01:08:34;23.05;;;8.75;;
7605;SDS011;3844;53.360;9.738;2022-11-27T01:10:35;24.67;;;7.88;;
7605;SDS011;3844;53.360;9.738;2022-11-27T01:12:36;22.30;;;8.68;;
7605;SDS011;3844;53.360;9.738;2022-11-27T01:14:37;27.88;;;8.48;;
7605;SDS011;3844;53.360;9.738;2022-11-27T01:16:38;22.75;;;8.27;;
7605;SDS011;3844;53.360;9.738;2022-11-27T01:18:39;32.92;;;10.55;;
7605;SDS011;3844;53.360;9.738;2022-11-27T01:20:40;29.58;;;9.30;;
7605;SDS011;3844;53.360;9.738;2022-11-27T01:22:41;31.67;;;8.55;;
7605;SDS011;3844;53.360;9.738;2022-11-27T01:24:42;25.15;;;8.23;;
7605;SDS011;3844;53.360;9.738;2022-11-27T01:26:43;23.15;;;7.80;;
7605;SDS011;3844;53.360;9.738;2022-11-27T01:28:44;25.55;;;8.38;;
7605;SDS011;3844;53.360;9.738;2022-11-27T01:30:45;27.27;;;8.38;;
7605;SDS011;3844;53.360;9.738;2022-11-27T01:32:46;23.48;;;7.90;;
7605;SDS011;3844;53.360;9.738;2022-11-27T01:34:47;24.00;;;7.90;;
7605;SDS011;3844;53.360;9.738;2022-11-27T01:36:49;16.98;;;7.00;;
7605;SDS011;3844;53.360;9.738;2022-11-27T01:38:50;19.88;;;7.07;;
7605;SDS011;3844;53.360;9.738;2022-11-27T01:41:02;19.25;;;7.10;;
7605;SDS011;3844;53.360;9.738;2022-11-27T01:43:08;17.45;;;7.07;;
7605;SDS011;3844;53.360;9.738;2022-11-27T01:45:17;20.02;;;7.40;;
7605;SDS011;3844;53.360;9.738;2022-11-27T01:47:23;21.05;;;7.15;;
7605;SDS011;3844;53.360;9.738;2022-11-27T01:49:40;17.40;;;6.88;;
7605;SDS011;3844;53.360;9.738;2022-11-27T01:53:56;21.60;;;7.30;;
7605;SDS011;3844;53.360;9.738;2022-11-27T01:55:57;19.52;;;6.80;;
7605;SDS011;3844;53.360;9.738;2022-11-27T01:58:09;16.30;;;6.47;;
7605;SDS011;3844;53.360;9.738;2022-11-27T02:00:13;20.13;;;6.70;;
7605;SDS011;3844;53.360;9.738;2022-11-27T02:02:15;22.70;;;7.25;;
7605;SDS011;3844;53.360;9.738;2022-11-27T02:04:17;18.30;;;7.07;;
7605;SDS011;3844;53.360;9.738;2022-11-27T02:06:18;18.48;;;6.57;;
7605;SDS011;3844;53.360;9.738;2022-11-27T02:08:19;19.30;;;7.13;;
7605;SDS011;3844;53.360;9.738;2022-11-27T02:10:20;17.45;;;6.88;;
7605;SDS011;3844;53.360;9.738;2022-11-27T02:12:46;18.80;;;6.68;;
7605;SDS011;3844;53.360;9.738;2022-11-27T02:17:17;16.77;;;7.28;;
7605;SDS011;3844;53.360;9.738;2022-11-27T02:19:32;20.55;;;6.80;;
7605;SDS011;3844;53.360;9.738;2022-11-27T02:26:52;18.15;;;6.95;;
7605;SDS011;3844;53.360;9.738;2022-11-27T02:29:08;22.40;;;7.78;;
7605;SDS011;3844;53.360;9.738;2022-11-27T02:31:56;21.13;;;7.65;;
7605;SDS011;3844;53.360;9.738;2022-11-27T02:33:52;17.52;;;6.80;;
7605;SDS011;3844;53.360;9.738;2022-11-27T02:36:00;20.75;;;7.93;;
7605;SDS011;3844;53.360;9.738;2022-11-27T02:40:24;21.92;;;7.80;;
7605;SDS011;3844;53.360;9.738;2022-11-27T02:42:47;21.70;;;7.50;;
7605;SDS011;3844;53.360;9.738;2022-11-27T02:44:58;17.92;;;7.18;;
7605;SDS011;3844;53.360;9.738;2022-11-27T02:47:07;25.80;;;8.20;;
7605;SDS011;3844;53.360;9.738;2022-11-27T02:49:10;25.88;;;8.20;;
7605;SDS011;3844;53.360;9.738;2022-11-27T02:51:16;24.58;;;8.88;;
7605;SDS011;3844;53.360;9.738;2022-11-27T02:53:22;29.27;;;9.68;;
7605;SDS011;3844;53.360;9.738;2022-11-27T02:55:26;26.60;;;9.23;;
7605;SDS011;3844;53.360;9.738;2022-11-27T02:57:30;29.42;;;9.43;;
7605;SDS011;3844;53.360;9.738;2022-11-27T02:59:32;24.67;;;8.40;;
7605;SDS011;3844;53.360;9.738;2022-11-27T03:01:37;28.55;;;9.38;;
7605;SDS011;3844;53.360;9.738;2022-11-27T03:03:45;22.83;;;8.85;;
7605;SDS011;3844;53.360;9.738;2022-11-27T03:05:51;24.58;;;8.93;;
7605;SDS011;3844;53.360;9.738;2022-11-27T03:08:00;26.38;;;9.05;;
7605;SDS011;3844;53.360;9.738;2022-11-27T03:10:28;23.50;;;8.90;;
7605;SDS011;3844;53.360;9.738;2022-11-27T03:12:31;26.10;;;10.10;;
7605;SDS011;3844;53.360;9.738;2022-11-27T03:14:32;26.92;;;9.77;;
7605;SDS011;3844;53.360;9.738;2022-11-27T03:18:51;27.20;;;9.65;;
7605;SDS011;3844;53.360;9.738;2022-11-27T03:21:21;32.03;;;10.18;;
7605;SDS011;3844;53.360;9.738;2022-11-27T03:23:24;28.77;;;10.00;;
7605;SDS011;3844;53.360;9.738;2022-11-27T03:25:27;24.15;;;9.52;;
7605;SDS011;3844;53.360;9.738;2022-11-27T03:27:29;29.08;;;11.00;;
7605;SDS011;3844;53.360;9.738;2022-11-27T03:31:37;27.20;;;10.10;;
7605;SDS011;3844;53.360;9.738;2022-11-27T03:33:38;31.08;;;11.02;;
7605;SDS011;3844;53.360;9.738;2022-11-27T03:35:39;30.52;;;11.20;;
7605;SDS011;3844;53.360;9.738;2022-11-27T03:37:40;32.22;;;11.13;;
7605;SDS011;3844;53.360;9.738;2022-11-27T03:39:41;30.63;;;11.23;;
7605;SDS011;3844;53.360;9.738;2022-11-27T03:41:49;34.78;;;11.13;;
7605;SDS011;3844;53.360;9.738;2022-11-27T03:46:35;30.33;;;10.40;;
7605;SDS011;3844;53.360;9.738;2022-11-27T03:49:07;31.08;;;11.63;;
7605;SDS011;3844;53.360;9.738;2022-11-27T03:51:28;27.60;;;10.85;;
7605;SDS011;3844;53.360;9.738;2022-11-27T04:00:01;27.73;;;10.52;;
7605;SDS011;3844;53.360;9.738;2022-11-27T04:02:05;27.48;;;11.10;;
7605;SDS011;3844;53.360;9.738;2022-11-27T04:04:06;36.40;;;12.75;;
7605;SDS011;3844;53.360;9.738;2022-11-27T04:06:06;34.95;;;12.80;;
7605;SDS011;3844;53.360;9.738;2022-11-27T04:08:07;36.78;;;12.55;;
7605;SDS011;3844;53.360;9.738;2022-11-27T04:10:09;31.20;;;12.02;;
7605;SDS011;3844;53.360;9.738;2022-11-27T04:12:10;37.95;;;13.10;;
7605;SDS011;3844;53.360;9.738;2022-11-27T04:14:11;38.88;;;12.93;;
7605;SDS011;3844;53.360;9.738;2022-11-27T04:16:12;35.17;;;13.50;;
7605;SDS011;3844;53.360;9.738;2022-11-27T04:18:12;35.55;;;12.57;;
7605;SDS011;3844;53.360;9.738;2022-11-27T04:20:13;33.88;;;12.00;;
7605;SDS011;3844;53.360;9.738;2022-11-27T04:22:14;33.17;;;12.18;;
7605;SDS011;3844;53.360;9.738;2022-11-27T04:24:16;32.92;;;12.25;;
7605;SDS011;3844;53.360;9.738;2022-11-27T04:26:16;38.50;;;13.52;;
7605;SDS011;3844;53.360;9.738;2022-11-27T04:28:17;32.85;;;12.68;;
7605;SDS011;3844;53.360;9.738;2022-11-27T04:30:18;35.90;;;12.63;;
7605;SDS011;3844;53.360;9.738;2022-11-27T04:32:19;38.53;;;13.20;;
7605;SDS011;3844;53.360;9.738;2022-11-27T04:34:20;33.72;;;12.05;;
7605;SDS011;3844;53.360;9.738;2022-11-27T04:36:20;32.60;;;12.63;;
7605;SDS011;3844;53.360;9.738;2022-11-27T04:38:21;32.58;;;12.25;;
7605;SDS011;3844;53.360;9.738;2022-11-27T04:40:22;36.13;;;13.68;;
7605;SDS011;3844;53.360;9.738;2022-11-27T04:42:23;43.83;;;14.73;;
7605;SDS011;3844;53.360;9.738;2022-11-27T04:44:23;41.13;;;14.75;;
7605;SDS011;3844;53.360;9.738;2022-11-27T04:46:24;39.42;;;13.07;;
7605;SDS011;3844;53.360;9.738;2022-11-27T04:48:25;41.22;;;14.07;;
7605;SDS011;3844;53.360;9.738;2022-11-27T04:50:25;39.83;;;14.80;;
7605;SDS011;3844;53.360;9.738;2022-11-27T04:52:26;37.90;;;15.05;;
7605;SDS011;3844;53.360;9.738;2022-11-27T04:54:27;42.90;;;15.18;;
7605;SDS011;3844;53.360;9.738;2022-11-27T04:56:28;50.08;;;15.93;;
7605;SDS011;3844;53.360;9.738;2022-11-27T04:58:29;43.88;;;15.13;;
7605;SDS011;3844;53.360;9.738;2022-11-27T05:00:29;41.60;;;16.08;;
7605;SDS011;3844;53.360;9.738;2022-11-27T05:02:30;41.90;;;15.63;;
7605;SDS011;3844;53.360;9.738;2022-11-27T05:04:31;49.40;;;16.60;;
7605;SDS011;3844;53.360;9.738;2022-11-27T05:06:31;50.67;;;16.98;;
7605;SDS011;3844;53.360;9.738;2022-11-27T05:08:32;47.22;;;16.35;;
7605;SDS011;3844;53.360;9.738;2022-11-27T05:10:33;53.20;;;17.05;;
7605;SDS011;3844;53.360;9.738;2022-11-27T05:12:34;49.90;;;16.40;;
7605;SDS011;3844;53.360;9.738;2022-11-27T05:14:34;53.22;;;16.92;;
7605;SDS011;3844;53.360;9.738;2022-11-27T05:16:35;56.25;;;17.90;;
7605;SDS011;3844;53.360;9.738;2022-11-27T05:18:36;52.78;;;17.17;;
7605;SDS011;3844;53.360;9.738;2022-11-27T05:20:36;50.70;;;17.20;;
7605;SDS011;3844;53.360;9.738;2022-11-27T05:22:37;75.57;;;21.23;;
7605;SDS011;3844;53.360;9.738;2022-11-27T05:24:38;65.53;;;19.85;;
7605;SDS011;3844;53.360;9.738;2022-11-27T05:26:39;69.95;;;19.70;;
7605;SDS011;3844;53.360;9.738;2022-11-27T05:28:40;67.47;;;20.27;;
7605;SDS011;3844;53.360;9.738;2022-11-27T05:30:40;64.35;;;20.05;;
7605;SDS011;3844;53.360;9.738;2022-11-27T05:32:41;72.50;;;20.23;;
7605;SDS011;3844;53.360;9.738;2022-11-27T05:34:42;66.82;;;20.30;;
7605;SDS011;3844;53.360;9.738;2022-11-27T05:36:43;64.40;;;19.65;;
7605;SDS011;3844;53.360;9.738;2022-11-27T05:38:43;67.95;;;20.02;;
7605;SDS011;3844;53.360;9.738;2022-11-27T05:40:44;76.63;;;21.85;;
7605;SDS011;3844;53.360;9.738;2022-11-27T05:42:45;69.70;;;20.63;;
7605;SDS011;3844;53.360;9.738;2022-11-27T05:44:45;64.75;;;19.80;;
7605;SDS011;3844;53.360;9.738;2022-11-27T05:46:46;68.57;;;20.35;;
7605;SDS011;3844;53.360;9.738;2022-11-27T05:48:49;68.70;;;20.90;;
7605;SDS011;3844;53.360;9.738;2022-11-27T05:50:50;63.08;;;18.60;;
7605;SDS011;3844;53.360;9.738;2022-11-27T05:52:51;57.25;;;18.95;;
7605;SDS011;3844;53.360;9.738;2022-11-27T05:54:51;59.42;;;18.23;;
7605;SDS011;3844;53.360;9.738;2022-11-27T05:56:53;58.80;;;18.58;;
7605;SDS011;3844;53.360;9.738;2022-11-27T05:58:54;58.08;;;18.45;;
7605;SDS011;3844;53.360;9.738;2022-11-27T06:00:55;62.80;;;19.52;;
7605;SDS011;3844;53.360;9.738;2022-11-27T06:02:56;74.00;;;19.83;;
7605;SDS011;3844;53.360;9.738;2022-11-27T06:04:57;62.97;;;19.92;;
7605;SDS011;3844;53.360;9.738;2022-11-27T06:06:57;60.40;;;19.58;;
7605;SDS011;3844;53.360;9.738;2022-11-27T06:08:59;62.70;;;19.40;;
7605;SDS011;3844;53.360;9.738;2022-11-27T06:10:59;65.25;;;19.35;;
7605;SDS011;3844;53.360;9.738;2022-11-27T06:13:06;66.65;;;20.52;;
7605;SDS011;3844;53.360;9.738;2022-11-27T06:15:07;54.28;;;18.58;;
7605;SDS011;3844;53.360;9.738;2022-11-27T06:17:08;49.60;;;18.20;;
7605;SDS011;3844;53.360;9.738;2022-11-27T06:19:08;53.47;;;17.20;;
7605;SDS011;3844;53.360;9.738;2022-11-27T06:21:11;61.95;;;18.42;;
7605;SDS011;3844;53.360;9.738;2022-11-27T06:23:13;48.78;;;14.35;;
7605;SDS011;3844;53.360;9.738;2022-11-27T06:25:13;55.60;;;18.15;;
7605;SDS011;3844;53.360;9.738;2022-11-27T06:27:14;57.53;;;18.58;;
7605;SDS011;3844;53.360;9.738;2022-11-27T06:29:15;82.38;;;22.35;;
7605;SDS011;3844;53.360;9.738;2022-11-27T06:31:16;70.82;;;19.67;;
7605;SDS011;3844;53.360;9.738;2022-11-27T06:33:21;66.90;;;19.70;;
7605;SDS011;3844;53.360;9.738;2022-11-27T06:35:22;65.65;;;19.35;;
7605;SDS011;3844;53.360;9.738;2022-11-27T06:37:23;59.85;;;19.50;;
7605;SDS011;3844;53.360;9.738;2022-11-27T06:39:24;57.58;;;18.30;;
7605;SDS011;3844;53.360;9.738;2022-11-27T06:41:25;63.10;;;19.10;;
7605;SDS011;3844;53.360;9.738;2022-11-27T06:43:27;63.28;;;19.88;;
7605;SDS011;3844;53.360;9.738;2022-11-27T06:45:28;58.53;;;18.40;;
7605;SDS011;3844;53.360;9.738;2022-11-27T06:47:28;62.28;;;18.45;;
7605;SDS011;3844;53.360;9.738;2022-11-27T06:49:29;54.42;;;17.23;;
7605;SDS011;3844;53.360;9.738;2022-11-27T06:51:30;64.53;;;19.67;;
7605;SDS011;3844;53.360;9.738;2022-11-27T06:53:32;65.63;;;18.63;;
7605;SDS011;3844;53.360;9.738;2022-11-27T06:55:36;52.72;;;17.42;;
7605;SDS011;3844;53.360;9.738;2022-11-27T06:57:37;54.00;;;17.13;;
7605;SDS011;3844;53.360;9.738;2022-11-27T06:59:37;63.58;;;18.98;;
7605;SDS011;3844;53.360;9.738;2022-11-27T07:01:38;59.47;;;18.35;;
7605;SDS011;3844;53.360;9.738;2022-11-27T07:03:39;57.47;;;17.60;;
7605;SDS011;3844;53.360;9.738;2022-11-27T07:05:40;67.72;;;20.48;;
7605;SDS011;3844;53.360;9.738;2022-11-27T07:07:40;70.22;;;20.33;;
7605;SDS011;3844;53.360;9.738;2022-11-27T07:09:41;68.88;;;19.88;;
7605;SDS011;3844;53.360;9.738;2022-11-27T07:11:42;73.35;;;20.75;;
7605;SDS011;3844;53.360;9.738;2022-11-27T07:13:43;69.43;;;20.27;;
7605;SDS011;3844;53.360;9.738;2022-11-27T07:15:45;66.40;;;20.23;;
7605;SDS011;3844;53.360;9.738;2022-11-27T07:17:45;63.92;;;19.38;;
7605;SDS011;3844;53.360;9.738;2022-11-27T07:19:46;60.22;;;18.00;;
7605;SDS011;3844;53.360;9.738;2022-11-27T07:21:47;59.17;;;18.08;;
7605;SDS011;3844;53.360;9.738;2022-11-27T07:23:48;59.60;;;17.77;;
7605;SDS011;3844;53.360;9.738;2022-11-27T07:25:48;63.08;;;18.50;;
7605;SDS011;3844;53.360;9.738;2022-11-27T07:27:49;75.60;;;19.48;;
7605;SDS011;3844;53.360;9.738;2022-11-27T07:29:50;69.80;;;19.80;;
7605;SDS011;3844;53.360;9.738;2022-11-27T07:31:51;72.95;;;19.90;;
7605;SDS011;3844;53.360;9.738;2022-11-27T07:33:52;72.60;;;20.45;;
7605;SDS011;3844;53.360;9.738;2022-11-27T07:35:57;78.80;;;21.73;;
7605;SDS011;3844;53.360;9.738;2022-11-27T07:37:59;84.07;;;21.77;;
7605;SDS011;3844;53.360;9.738;2022-11-27T07:39:59;86.28;;;21.90;;
7605;SDS011;3844;53.360;9.738;2022-11-27T07:42:00;82.72;;;21.33;;
7605;SDS011;3844;53.360;9.738;2022-11-27T07:44:01;76.00;;;20.75;;
7605;SDS011;3844;53.360;9.738;2022-11-27T07:46:06;77.00;;;21.02;;
7605;SDS011;3844;53.360;9.738;2022-11-27T07:48:12;74.45;;;21.40;;
7605;SDS011;3844;53.360;9.738;2022-11-27T07:50:13;87.30;;;22.77;;
7605;SDS011;3844;53.360;9.738;2022-11-27T07:52:14;89.32;;;23.30;;
7605;SDS011;3844;53.360;9.738;2022-11-27T07:54:15;74.65;;;21.45;;
7605;SDS011;3844;53.360;9.738;2022-11-27T07:56:16;67.05;;;20.50;;
7605;SDS011;3844;53.360;9.738;2022-11-27T07:58:17;77.45;;;21.65;;
7605;SDS011;3844;53.360;9.738;2022-11-27T08:00:18;76.95;;;20.63;;
7605;SDS011;3844;53.360;9.738;2022-11-27T08:02:19;66.20;;;20.35;;
7605;SDS011;3844;53.360;9.738;2022-11-27T08:04:20;78.20;;;21.33;;
7605;SDS011;3844;53.360;9.738;2022-11-27T08:06:22;71.80;;;19.27;;
7605;SDS011;3844;53.360;9.738;2022-11-27T08:08:25;68.50;;;19.17;;
7605;SDS011;3844;53.360;9.738;2022-11-27T08:10:25;67.80;;;19.17;;
7605;SDS011;3844;53.360;9.738;2022-11-27T08:12:26;72.65;;;21.08;;
7605;SDS011;3844;53.360;9.738;2022-11-27T08:14:27;84.18;;;22.58;;
7605;SDS011;3844;53.360;9.738;2022-11-27T08:16:28;76.72;;;21.73;;
7605;SDS011;3844;53.360;9.738;2022-11-27T08:18:32;74.70;;;21.23;;
7605;SDS011;3844;53.360;9.738;2022-11-27T08:20:33;76.60;;;21.15;;
7605;SDS011;3844;53.360;9.738;2022-11-27T08:22:34;66.70;;;20.00;;
7605;SDS011;3844;53.360;9.738;2022-11-27T08:24:34;67.82;;;20.35;;
7605;SDS011;3844;53.360;9.738;2022-11-27T08:26:37;51.27;;;15.27;;
7605;SDS011;3844;53.360;9.738;2022-11-27T08:28:38;58.50;;;19.15;;
7605;SDS011;3844;53.360;9.738;2022-11-27T08:30:39;60.80;;;18.75;;
7605;SDS011;3844;53.360;9.738;2022-11-27T08:32:41;64.60;;;20.48;;
7605;SDS011;3844;53.360;9.738;2022-11-27T08:34:42;55.33;;;18.52;;
7605;SDS011;3844;53.360;9.738;2022-11-27T08:36:43;71.68;;;19.50;;
7605;SDS011;3844;53.360;9.738;2022-11-27T08:38:45;58.15;;;18.98;;
7605;SDS011;3844;53.360;9.738;2022-11-27T08:40:59;53.28;;;18.63;;
7605;SDS011;3844;53.360;9.738;2022-11-27T08:43:01;55.13;;;18.15;;
7605;SDS011;3844;53.360;9.738;2022-11-27T08:45:02;46.65;;;17.35;;
7605;SDS011;3844;53.360;9.738;2022-11-27T08:47:03;45.92;;;16.70;;
7605;SDS011;3844;53.360;9.738;2022-11-27T08:49:04;49.78;;;16.98;;
7605;SDS011;3844;53.360;9.738;2022-11-27T08:51:09;43.38;;;16.10;;
7605;SDS011;3844;53.360;9.738;2022-11-27T08:53:12;46.30;;;16.67;;
7605;SDS011;3844;53.360;9.738;2022-11-27T08:55:13;37.53;;;15.68;;
7605;SDS011;3844;53.360;9.738;2022-11-27T08:57:15;42.72;;;15.68;;
7605;SDS011;3844;53.360;9.738;2022-11-27T08:59:16;41.22;;;15.80;;
7605;SDS011;3844;53.360;9.738;2022-11-27T09:01:21;36.05;;;14.05;;
7605;SDS011;3844;53.360;9.738;2022-11-27T09:03:23;35.63;;;13.95;;
7605;SDS011;3844;53.360;9.738;2022-11-27T09:05:24;40.90;;;14.50;;
7605;SDS011;3844;53.360;9.738;2022-11-27T09:07:25;33.25;;;13.70;;
7605;SDS011;3844;53.360;9.738;2022-11-27T09:09:25;30.58;;;12.90;;
7605;SDS011;3844;53.360;9.738;2022-11-27T09:11:27;32.65;;;13.13;;
7605;SDS011;3844;53.360;9.738;2022-11-27T09:13:31;37.65;;;14.10;;
7605;SDS011;3844;53.360;9.738;2022-11-27T09:15:32;30.98;;;12.77;;
7605;SDS011;3844;53.360;9.738;2022-11-27T09:17:33;24.90;;;11.95;;
7605;SDS011;3844;53.360;9.738;2022-11-27T09:19:34;32.50;;;12.82;;
7605;SDS011;3844;53.360;9.738;2022-11-27T09:21:35;24.90;;;11.30;;
7605;SDS011;3844;53.360;9.738;2022-11-27T09:23:38;23.80;;;11.55;;
7605;SDS011;3844;53.360;9.738;2022-11-27T09:25:39;24.08;;;10.75;;
7605;SDS011;3844;53.360;9.738;2022-11-27T09:27:39;20.48;;;10.07;;
7605;SDS011;3844;53.360;9.738;2022-11-27T09:29:40;23.13;;;10.65;;
7605;SDS011;3844;53.360;9.738;2022-11-27T09:31:41;30.00;;;11.55;;
7605;SDS011;3844;53.360;9.738;2022-11-27T09:33:42;30.52;;;12.35;;
7605;SDS011;3844;53.360;9.738;2022-11-27T09:35:43;26.98;;;11.07;;
7605;SDS011;3844;53.360;9.738;2022-11-27T09:37:44;33.92;;;13.07;;
7605;SDS011;3844;53.360;9.738;2022-11-27T09:39:45;31.13;;;12.60;;
7605;SDS011;3844;53.360;9.738;2022-11-27T09:41:48;31.55;;;13.50;;
7605;SDS011;3844;53.360;9.738;2022-11-27T09:43:55;38.88;;;14.55;;
7605;SDS011;3844;53.360;9.738;2022-11-27T09:46:01;35.67;;;13.88;;
7605;SDS011;3844;53.360;9.738;2022-11-27T09:48:10;34.10;;;13.25;;
7605;SDS011;3844;53.360;9.738;2022-11-27T09:50:20;39.15;;;14.10;;
7605;SDS011;3844;53.360;9.738;2022-11-27T09:52:52;40.95;;;14.43;;
7605;SDS011;3844;53.360;9.738;2022-11-27T09:55:04;33.95;;;13.15;;
7605;SDS011;3844;53.360;9.738;2022-11-27T09:57:25;34.65;;;13.13;;
7605;SDS011;3844;53.360;9.738;2022-11-27T09:59:49;34.38;;;12.35;;
7605;SDS011;3844;53.360;9.738;2022-11-27T10:01:52;30.90;;;12.30;;
7605;SDS011;3844;53.360;9.738;2022-11-27T10:03:53;30.55;;;11.55;;
7605;SDS011;3844;53.360;9.738;2022-11-27T10:08:11;24.48;;;10.73;;
7605;SDS011;3844;53.360;9.738;2022-11-27T10:10:37;28.02;;;11.75;;
7605;SDS011;3844;53.360;9.738;2022-11-27T10:12:52;25.70;;;11.00;;
7605;SDS011;3844;53.360;9.738;2022-11-27T10:17:40;31.58;;;12.70;;
7605;SDS011;3844;53.360;9.738;2022-11-27T10:25:10;22.85;;;10.50;;
7605;SDS011;3844;53.360;9.738;2022-11-27T10:27:26;23.55;;;10.73;;
7605;SDS011;3844;53.360;9.738;2022-11-27T10:29:35;28.88;;;11.00;;
7605;SDS011;3844;53.360;9.738;2022-11-27T10:31:56;25.67;;;10.57;;
7605;SDS011;3844;53.360;9.738;2022-11-27T10:34:04;21.20;;;10.20;;
7605;SDS011;3844;53.360;9.738;2022-11-27T10:36:30;19.50;;;9.77;;
7605;SDS011;3844;53.360;9.738;2022-11-27T10:38:40;27.20;;;10.90;;
7605;SDS011;3844;53.360;9.738;2022-11-27T10:40:45;23.83;;;9.93;;
7605;SDS011;3844;53.360;9.738;2022-11-27T10:42:53;20.63;;;9.40;;
7605;SDS011;3844;53.360;9.738;2022-11-27T10:45:01;20.70;;;10.45;;
7605;SDS011;3844;53.360;9.738;2022-11-27T10:47:03;18.55;;;8.90;;
7605;SDS011;3844;53.360;9.738;2022-11-27T10:49:07;18.00;;;8.85;;
7605;SDS011;3844;53.360;9.738;2022-11-27T10:51:12;22.88;;;9.70;;
7605;SDS011;3844;53.360;9.738;2022-11-27T10:53:49;21.60;;;9.68;;
7605;SDS011;3844;53.360;9.738;2022-11-27T10:58:13;19.83;;;9.88;;
7605;SDS011;3844;53.360;9.738;2022-11-27T11:00:23;20.08;;;9.27;;
7605;SDS011;3844;53.360;9.738;2022-11-27T11:02:26;21.50;;;10.27;;
7605;SDS011;3844;53.360;9.738;2022-11-27T11:04:30;21.30;;;9.38;;
7605;SDS011;3844;53.360;9.738;2022-11-27T11:06:31;19.63;;;9.20;;
7605;SDS011;3844;53.360;9.738;2022-11-27T11:08:37;22.92;;;9.80;;
7605;SDS011;3844;53.360;9.738;2022-11-27T11:11:00;20.63;;;9.88;;
7605;SDS011;3844;53.360;9.738;2022-11-27T11:13:14;27.50;;;10.13;;
7605;SDS011;3844;53.360;9.738;2022-11-27T11:15:16;20.63;;;9.98;;
7605;SDS011;3844;53.360;9.738;2022-11-27T11:17:21;22.17;;;9.68;;
7605;SDS011;3844;53.360;9.738;2022-11-27T11:19:32;18.20;;;9.10;;
7605;SDS011;3844;53.360;9.738;2022-11-27T11:21:38;24.55;;;10.23;;
7605;SDS011;3844;53.360;9.738;2022-11-27T11:23:41;20.60;;;9.95;;
7605;SDS011;3844;53.360;9.738;2022-11-27T11:25:47;20.13;;;10.15;;
7605;SDS011;3844;53.360;9.738;2022-11-27T11:27:49;25.08;;;10.32;;
7605;SDS011;3844;53.360;9.738;2022-11-27T11:29:52;21.45;;;9.57;;
7605;SDS011;3844;53.360;9.738;2022-11-27T11:33:57;21.90;;;9.75;;
7605;SDS011;3844;53.360;9.738;2022-11-27T11:36:05;25.88;;;10.20;;
7605;SDS011;3844;53.360;9.738;2022-11-27T11:38:13;21.05;;;9.93;;
7605;SDS011;3844;53.360;9.738;2022-11-27T11:40:20;22.45;;;9.82;;
7605;SDS011;3844;53.360;9.738;2022-11-27T11:42:30;21.38;;;9.35;;
7605;SDS011;3844;53.360;9.738;2022-11-27T11:44:39;23.17;;;9.80;;
7605;SDS011;3844;53.360;9.738;2022-11-27T11:46:40;22.20;;;10.07;;
7605;SDS011;3844;53.360;9.738;2022-11-27T11:55:37;21.58;;;9.07;;
7605;SDS011;3844;53.360;9.738;2022-11-27T12:00:12;23.40;;;10.38;;
7605;SDS011;3844;53.360;9.738;2022-11-27T12:14:17;24.52;;;9.80;;
7605;SDS011;3844;53.360;9.738;2022-11-27T12:16:28;18.13;;;8.95;;
7605;SDS011;3844;53.360;9.738;2022-11-27T12:23:17;18.45;;;8.10;;
7605;SDS011;3844;53.360;9.738;2022-11-27T12:27:48;16.45;;;8.10;;
7605;SDS011;3844;53.360;9.738;2022-11-27T12:36:50;19.90;;;8.88;;
7605;SDS011;3844;53.360;9.738;2022-11-27T12:43:46;17.35;;;8.20;;
7605;SDS011;3844;53.360;9.738;2022-11-27T12:46:05;20.13;;;9.10;;
7605;SDS011;3844;53.360;9.738;2022-11-27T12:48:40;20.95;;;9.30;;
7605;SDS011;3844;53.360;9.738;2022-11-27T12:50:55;19.17;;;9.20;;
7605;SDS011;3844;53.360;9.738;2022-11-27T12:53:20;19.80;;;9.27;;
7605;SDS011;3844;53.360;9.738;2022-11-27T12:55:33;18.00;;;8.70;;
7605;SDS011;3844;53.360;9.738;2022-11-27T12:57:36;22.73;;;9.30;;
7605;SDS011;3844;53.360;9.738;2022-11-27T12:59:55;17.27;;;8.57;;
7605;SDS011;3844;53.360;9.738;2022-11-27T13:02:00;19.42;;;9.07;;
7605;SDS011;3844;53.360;9.738;2022-11-27T13:04:33;19.23;;;8.27;;
7605;SDS011;3844;53.360;9.738;2022-11-27T13:06:40;19.10;;;8.88;;
7605;SDS011;3844;53.360;9.738;2022-11-27T13:08:59;18.85;;;8.50;;
7605;SDS011;3844;53.360;9.738;2022-11-27T13:11:04;19.00;;;8.70;;
7605;SDS011;3844;53.360;9.738;2022-11-27T13:15:17;17.35;;;8.07;;
7605;SDS011;3844;53.360;9.738;2022-11-27T13:17:22;18.42;;;7.82;;
7605;SDS011;3844;53.360;9.738;2022-11-27T13:21:42;16.40;;;8.05;;
7605;SDS011;3844;53.360;9.738;2022-11-27T13:23:45;18.23;;;8.23;;
7605;SDS011;3844;53.360;9.738;2022-11-27T13:25:49;16.15;;;8.15;;
7605;SDS011;3844;53.360;9.738;2022-11-27T13:27:53;18.50;;;8.38;;
7605;SDS011;3844;53.360;9.738;2022-11-27T13:30:05;19.17;;;8.35;;
7605;SDS011;3844;53.360;9.738;2022-11-27T13:32:07;17.63;;;7.72;;
7605;SDS011;3844;53.360;9.738;2022-11-27T13:34:19;16.73;;;7.75;;
7605;SDS011;3844;53.360;9.738;2022-11-27T13:36:23;17.25;;;8.00;;
7605;SDS011;3844;53.360;9.738;2022-11-27T13:38:26;17.08;;;7.75;;
7605;SDS011;3844;53.360;9.738;2022-11-27T13:40:31;17.83;;;8.18;;
7605;SDS011;3844;53.360;9.738;2022-11-27T13:42:40;17.55;;;7.45;;
7605;SDS011;3844;53.360;9.738;2022-11-27T13:44:50;16.83;;;7.25;;
7605;SDS011;3844;53.360;9.738;2022-11-27T13:46:59;14.02;;;6.93;;
7605;SDS011;3844;53.360;9.738;2022-11-27T13:49:06;18.05;;;7.45;;
7605;SDS011;3844;53.360;9.738;2022-11-27T13:51:08;14.68;;;6.97;;
7605;SDS011;3844;53.360;9.738;2022-11-27T13:53:10;20.20;;;7.47;;
7605;SDS011;3844;53.360;9.738;2022-11-27T13:55:12;13.82;;;7.00;;
7605;SDS011;3844;53.360;9.738;2022-11-27T13:57:27;13.88;;;6.68;;
7605;SDS011;3844;53.360;9.738;2022-11-27T13:59:29;14.80;;;6.90;;
7605;SDS011;3844;53.360;9.738;2022-11-27T14:01:30;15.48;;;7.20;;